Barueri, Brazil
Current Conditions -  °F | °C
As of 8:00 PM on Monday 24 Nov 2014 (Local Time) from SBMT Reporting Station
Haze Haze  
Wind Chill: 72°   Ceiling: 1500
Heat Index: 72°   Visibility: 1.8mi
Dew Point: 64°   Wind: 7mph
Humidity: 78%   Direction: 140°SE
Pressure: 30"   Gusts: NA
Location:  23.49°S, 46.86°W
Report Text: SBMT 242200Z 14006KT 3000 HZ BKN015 BKN060 22/18 Q1016
Loading
Personal Weather Stations






























Interactive Weather Map New forecast layout! Learn more

10-Day Weather Forecast

Advertisements
Track Severe Weather on mobile